Time;durP1;ratioP1;P1;durP2;ratioP2;P2;SDS_P1;SDS_P2;PMS_P1;PMS_P2;Temp;Humidity;BMP_temperature;BMP_pressure;BME280_temperature;BME280_humidity;BME280_pressure;Samples;Min_cycle;Max_cycle;Signal;HPM_P1;HPM_P2
2021/07/27 00:01:59;;;;;;;27.63;19.33;;;18.50;99.90;;;;;;5056397;28;20021;-65
2021/07/27 00:04:25;;;;;;;29.55;19.38;;;18.50;99.90;;;;;;5062276;28;20028;-65
2021/07/27 00:06:50;;;;;;;28.50;20.02;;;18.50;99.90;;;;;;5069360;28;20070;-65
2021/07/27 00:09:16;;;;;;;25.00;17.42;;;18.50;99.90;;;;;;5037655;28;20853;-65
2021/07/27 00:11:41;;;;;;;30.10;19.75;;;18.50;99.90;;;;;;5055840;28;20028;-65
2021/07/27 00:14:07;;;;;;;25.35;17.10;;;18.50;99.90;;;;;;5055601;28;20036;-65
2021/07/27 00:16:32;;;;;;;29.67;20.25;;;18.50;99.90;;;;;;5054046;28;20025;-65
2021/07/27 00:18:58;;;;;;;34.70;23.50;;;18.50;99.90;;;;;;5055997;28;20029;-66
2021/07/27 00:21:24;;;;;;;33.35;22.40;;;18.50;99.90;;;;;;5040935;28;20119;-66
2021/07/27 00:23:50;;;;;;;33.13;22.58;;;18.50;99.90;;;;;;5056892;28;20075;-65
2021/07/27 00:26:15;;;;;;;30.13;19.98;;;18.50;99.90;;;;;;5054768;28;20386;-66
2021/07/27 00:28:41;;;;;;;30.95;20.20;;;18.50;99.90;;;;;;5055403;28;20466;-65
2021/07/27 00:31:14;;;;;;;26.27;19.38;;;18.50;99.90;;;;;;5036043;28;20074;-65
2021/07/27 00:33:39;;;;;;;31.10;21.13;;;18.60;99.90;;;;;;5035876;28;20079;-65
2021/07/27 00:36:08;;;;;;;30.75;21.58;;;18.60;99.90;;;;;;5055799;28;20028;-65
2021/07/27 00:38:34;;;;;;;31.88;21.98;;;18.60;99.90;;;;;;5041339;28;20031;-65
2021/07/27 00:40:59;;;;;;;30.27;21.15;;;18.60;99.90;;;;;;5054880;28;20021;-65
2021/07/27 00:43:25;;;;;;;32.85;22.63;;;18.60;99.90;;;;;;5054598;28;20078;-65
2021/07/27 00:45:50;;;;;;;34.25;22.40;;;18.60;99.90;;;;;;5062900;28;20516;-66
2021/07/27 00:48:16;;;;;;;32.08;22.45;;;18.60;99.90;;;;;;5073601;28;20025;-65
2021/07/27 00:50:42;;;;;;;29.42;19.85;;;18.60;99.90;;;;;;5073424;28;20027;-65
2021/07/27 00:53:07;;;;;;;30.45;21.20;;;18.60;99.90;;;;;;5076479;28;20036;-65
2021/07/27 00:55:34;;;;;;;31.25;22.02;;;18.60;99.90;;;;;;5073793;28;20025;-66
2021/07/27 00:58:00;;;;;;;31.92;21.50;;;18.60;99.90;;;;;;5073748;28;20031;-65
2021/07/27 01:00:26;;;;;;;38.47;24.00;;;18.60;99.90;;;;;;5072874;28;20020;-65
2021/07/27 01:02:52;;;;;;;37.03;25.50;;;18.60;99.90;;;;;;5074233;28;20025;-65
2021/07/27 01:05:18;;;;;;;37.92;26.15;;;18.60;99.90;;;;;;5060920;28;20619;-65
2021/07/27 01:07:44;;;;;;;37.90;26.08;;;18.60;99.90;;;;;;5053878;28;20025;-65
2021/07/27 01:10:16;;;;;;;38.42;27.48;;;18.60;99.90;;;;;;5057733;28;20054;-65
2021/07/27 01:12:42;;;;;;;38.45;25.40;;;18.60;99.90;;;;;;5074117;28;20032;-65
2021/07/27 01:15:08;;;;;;;35.78;25.77;;;18.60;99.90;;;;;;5073671;28;20414;-65
2021/07/27 01:17:34;;;;;;;35.33;25.42;;;18.60;99.90;;;;;;5072707;28;20103;-65
2021/07/27 01:20:17;;;;;;;35.97;25.42;;;18.50;99.90;;;;;;5074192;28;20012;-66
2021/07/27 01:39:44;;;;;;;42.90;29.30;;;18.40;99.90;;;;;;5074638;28;20077;-65
2021/07/27 01:42:09;;;;;;;42.33;29.73;;;18.30;99.90;;;;;;5071757;28;20062;-65
2021/07/27 01:44:45;;;;;;;42.63;29.67;;;18.30;99.90;;;;;;5073368;28;20039;-66
2021/07/27 01:47:16;;;;;;;44.55;30.23;;;18.30;99.90;;;;;;5055708;28;20054;-65
2021/07/27 01:49:43;;;;;;;50.78;33.05;;;18.30;99.90;;;;;;5072340;28;20016;-65
2021/07/27 01:52:10;;;;;;;43.03;30.17;;;18.20;99.90;;;;;;5074456;28;20482;-65
2021/07/27 01:54:44;;;;;;;44.92;30.67;;;18.20;99.90;;;;;;5074130;28;20026;-65
2021/07/27 01:57:11;;;;;;;41.50;29.45;;;18.10;99.90;;;;;;5072141;28;20031;-65
2021/07/27 01:59:38;;;;;;;44.53;31.98;;;18.10;99.90;;;;;;5054339;28;20119;-65
2021/07/27 02:02:04;;;;;;;51.38;34.40;;;18.10;99.90;;;;;;5071762;28;20012;-65
2021/07/27 02:04:30;;;;;;;51.88;36.60;;;18.00;99.90;;;;;;5057555;28;20108;-65
2021/07/27 02:06:56;;;;;;;51.13;34.63;;;18.00;99.90;;;;;;5074605;28;20100;-65
2021/07/27 02:09:21;;;;;;;49.28;33.97;;;17.90;99.90;;;;;;5073552;28;20070;-65
2021/07/27 02:11:48;;;;;;;44.85;31.48;;;17.90;99.90;;;;;;5074265;28;20013;-65
2021/07/27 02:14:16;;;;;;;45.10;32.70;;;17.90;99.90;;;;;;5073368;28;20025;-65
2021/07/27 02:16:42;;;;;;;50.38;34.00;;;17.90;99.90;;;;;;5072137;28;20013;-65
2021/07/27 02:19:08;;;;;;;62.03;40.50;;;17.80;99.90;;;;;;5053378;28;20389;-65
2021/07/27 02:21:34;;;;;;;52.35;36.58;;;17.80;99.90;;;;;;5069623;28;20036;-65
2021/07/27 02:24:00;;;;;;;59.20;40.28;;;17.80;99.90;;;;;;5073845;28;20478;-65
2021/07/27 02:26:26;;;;;;;57.88;38.78;;;17.70;99.90;;;;;;5073204;28;20020;-65
2021/07/27 02:28:52;;;;;;;46.88;31.83;;;17.60;99.90;;;;;;5068280;28;20027;-65
2021/07/27 02:31:26;;;;;;;54.92;35.40;;;17.60;99.90;;;;;;5075161;28;20278;-65
2021/07/27 02:33:51;;;;;;;45.17;31.85;;;17.60;99.90;;;;;;5072487;28;20017;-65
2021/07/27 02:36:17;;;;;;;53.58;35.88;;;17.60;99.90;;;;;;5071396;28;20051;-66
2021/07/27 02:38:42;;;;;;;53.78;36.70;;;17.50;99.90;;;;;;5070043;28;20035;-65
2021/07/27 02:41:11;;;;;;;58.17;37.13;;;17.50;99.90;;;;;;5073451;28;20039;-65
2021/07/27 02:43:37;;;;;;;50.17;34.10;;;17.50;99.90;;;;;;5073957;28;20016;-65
2021/07/27 02:46:02;;;;;;;50.40;34.50;;;17.50;99.90;;;;;;5071712;28;20036;-65
2021/07/27 02:48:28;;;;;;;50.85;34.20;;;17.40;99.90;;;;;;5071961;28;20104;-65
2021/07/27 02:51:01;;;;;;;60.35;38.65;;;17.40;99.90;;;;;;5071637;28;20013;-65
2021/07/27 02:53:30;;;;;;;56.53;37.08;;;17.40;99.90;;;;;;5075001;28;20052;-65
2021/07/27 02:55:58;;;;;;;52.15;34.58;;;17.30;99.90;;;;;;5073078;28;20021;-65
2021/07/27 02:58:23;;;;;;;46.30;32.72;;;17.30;99.90;;;;;;5053763;28;20028;-66
2021/07/27 03:00:49;;;;;;;54.28;35.28;;;17.30;99.90;;;;;;5062997;28;20070;-65
2021/07/27 03:03:14;;;;;;;51.50;35.15;;;17.20;99.90;;;;;;5071463;28;20107;-65
2021/07/27 03:05:40;;;;;;;56.55;37.70;;;17.20;99.90;;;;;;5069545;28;20478;-65
2021/07/27 03:08:11;;;;;;;56.45;35.58;;;17.20;99.90;;;;;;5057231;28;20024;-66
2021/07/27 03:10:36;;;;;;;54.03;37.35;;;17.10;99.90;;;;;;5075349;28;20013;-65
2021/07/27 03:13:02;;;;;;;54.67;36.50;;;17.10;99.90;;;;;;5057531;28;20424;-65
2021/07/27 03:15:29;;;;;;;51.15;35.58;;;17.10;99.90;;;;;;5075186;28;20063;-65
2021/07/27 03:18:00;;;;;;;54.83;36.55;;;17.10;99.90;;;;;;5074801;28;20028;-65
2021/07/27 03:20:27;;;;;;;49.58;34.58;;;17.10;99.90;;;;;;5073500;28;20078;-65
2021/07/27 03:22:54;;;;;;;50.35;34.17;;;17.00;99.90;;;;;;5074956;28;20016;-65
2021/07/27 03:25:19;;;;;;;43.50;29.50;;;17.00;99.90;;;;;;5077957;28;20035;-66
2021/07/27 03:27:46;;;;;;;42.75;30.98;;;17.00;99.90;;;;;;5058328;28;20107;-65
2021/07/27 03:30:13;;;;;;;51.85;34.05;;;17.00;99.90;;;;;;5076207;28;20388;-65
2021/07/27 03:32:39;;;;;;;52.55;32.33;;;17.00;99.90;;;;;;5074759;28;20029;-65
2021/07/27 03:35:05;;;;;;;46.60;32.50;;;17.00;99.90;;;;;;5074700;28;20107;-65
2021/07/27 03:37:35;;;;;;;47.08;33.38;;;16.90;99.90;;;;;;5058956;28;20120;-65
2021/07/27 03:40:01;;;;;;;;;;;16.90;99.90;;;;;;5076898;28;20482;-65
2021/07/27 03:42:27;;;;;;;48.63;32.92;;;16.80;99.90;;;;;;5077892;28;19904;-65
2021/07/27 03:44:54;;;;;;;44.85;30.10;;;16.80;99.90;;;;;;5075203;28;20081;-65
2021/07/27 03:47:19;;;;;;;48.58;34.28;;;16.80;99.90;;;;;;5058208;28;20056;-65
2021/07/27 03:49:45;;;;;;;44.15;33.53;;;16.80;99.90;;;;;;5074647;28;20040;-65
2021/07/27 03:52:10;;;;;;;46.33;31.15;;;16.70;99.90;;;;;;5074179;28;20020;-65
2021/07/27 03:54:36;;;;;;;47.78;32.53;;;16.70;99.90;;;;;;5076796;28;20016;-65
2021/07/27 03:57:03;;;;;;;45.80;33.60;;;16.70;99.90;;;;;;5074780;28;20027;-65
2021/07/27 03:59:33;;;;;;;47.47;33.45;;;16.70;99.90;;;;;;5074743;28;20383;-65
2021/07/27 04:01:59;;;;;;;;;;;16.80;99.90;;;;;;5074317;28;20222;-65
2021/07/27 04:04:26;;;;;;;46.10;32.97;;;16.70;99.90;;;;;;5074147;28;20381;-65
2021/07/27 04:06:51;;;;;;;46.03;34.13;;;16.70;99.90;;;;;;5077631;28;20017;-66
2021/07/27 04:09:17;;;;;;;48.00;32.85;;;16.70;99.90;;;;;;5075549;28;20033;-65
2021/07/27 04:11:43;;;;;;;43.30;31.40;;;16.70;99.90;;;;;;5052265;28;20017;-65
2021/07/27 04:14:10;;;;;;;44.97;33.42;;;16.80;99.90;;;;;;5057648;28;20020;-65
2021/07/27 04:16:39;;;;;;;47.00;32.30;;;16.70;99.90;;;;;;5074776;28;20092;-65
2021/07/27 04:19:23;;;;;;;;;;;16.80;99.90;;;;;;5074212;28;20039;-65
2021/07/27 04:21:49;;;;;;;46.88;32.42;;;16.70;99.90;;;;;;5074954;28;19904;-65
2021/07/27 04:24:17;;;;;;;45.70;31.48;;;16.60;99.90;;;;;;5075635;28;20496;-65
2021/07/27 04:26:42;;;;;;;39.40;29.42;;;16.60;99.90;;;;;;5070864;28;20025;-66
2021/07/27 04:29:08;;;;;;;41.75;30.92;;;16.70;99.90;;;;;;5074709;28;20489;-65
2021/07/27 04:31:33;;;;;;;40.08;29.88;;;16.70;99.90;;;;;;5051810;28;20367;-65
2021/07/27 04:33:59;;;;;;;49.40;33.65;;;16.70;99.90;;;;;;5073481;28;20511;-65
2021/07/27 04:36:24;;;;;;;47.25;33.47;;;16.70;99.90;;;;;;5073394;28;20024;-65
2021/07/27 04:38:50;;;;;;;43.67;31.17;;;16.80;99.90;;;;;;5075523;28;20028;-65
2021/07/27 04:41:15;;;;;;;37.70;27.90;;;16.70;99.90;;;;;;5074965;28;20025;-65
2021/07/27 04:43:41;;;;;;;40.60;28.50;;;16.80;99.90;;;;;;5076261;28;20493;-65
2021/07/27 04:46:07;;;;;;;40.83;28.40;;;16.80;99.90;;;;;;5073508;28;20464;-65
2021/07/27 04:48:33;;;;;;;45.00;31.25;;;16.90;99.90;;;;;;5073444;28;20025;-65
2021/07/27 04:50:59;;;;;;;40.67;29.85;;;16.90;99.90;;;;;;5054924;28;20025;-65
2021/07/27 04:53:25;;;;;;;42.22;29.25;;;16.90;99.90;;;;;;5071243;28;20405;-65
2021/07/27 04:55:52;;;;;;;40.95;29.60;;;16.90;99.90;;;;;;5073604;28;20020;-65
2021/07/27 04:58:17;;;;;;;37.05;25.98;;;16.90;99.90;;;;;;5074330;28;20043;-65
2021/07/27 05:00:43;;;;;;;33.67;25.55;;;17.00;99.90;;;;;;5055305;28;20025;-66
2021/07/27 05:03:09;;;;;;;39.00;27.77;;;17.00;99.90;;;;;;5054871;28;20020;-66
2021/07/27 05:05:34;;;;;;;36.75;26.25;;;17.00;99.90;;;;;;5074621;28;20473;-66
2021/07/27 05:08:01;;;;;;;39.78;29.02;;;17.00;99.90;;;;;;5069159;28;20024;-65
2021/07/27 05:10:27;;;;;;;36.47;26.02;;;17.10;99.90;;;;;;5093404;28;20036;-65
2021/07/27 05:13:19;;;;;;;37.38;27.45;;;17.10;99.90;;;;;;5088717;28;20021;-65
2021/07/27 05:15:45;;;;;;;33.47;23.80;;;17.10;99.90;;;;;;5060948;28;20103;-65
2021/07/27 05:18:10;;;;;;;30.77;22.95;;;17.10;99.90;;;;;;5075102;28;20107;-65
2021/07/27 05:23:34;;;;;;;31.33;23.55;;;17.10;99.90;;;;;;5082541;28;20032;-65
2021/07/27 05:26:00;;;;;;;31.60;23.63;;;17.10;99.90;;;;;;5093017;28;20035;-65
2021/07/27 05:28:28;;;;;;;30.98;24.13;;;17.10;99.90;;;;;;5093270;28;20023;-65
2021/07/27 05:30:54;;;;;;;31.05;23.85;;;17.10;99.90;;;;;;5093074;28;20028;-65
2021/07/27 05:33:19;;;;;;;30.88;22.77;;;17.10;99.90;;;;;;5092690;28;20016;-65
2021/07/27 05:35:45;;;;;;;36.30;25.92;;;17.20;99.90;;;;;;5074835;28;20024;-66
2021/07/27 05:38:11;;;;;;;33.47;25.65;;;17.20;99.90;;;;;;5092947;28;20023;-65
2021/07/27 05:40:36;;;;;;;31.17;24.40;;;17.20;99.90;;;;;;5093034;28;20107;-65
2021/07/27 05:43:02;;;;;;;29.42;22.90;;;17.30;99.90;;;;;;5092821;28;20024;-65
2021/07/27 05:45:27;;;;;;;29.40;22.42;;;17.30;99.90;;;;;;5092724;28;20173;-65
2021/07/27 05:47:53;;;;;;;33.10;23.85;;;17.40;99.90;;;;;;5090503;28;20177;-65
2021/07/27 05:50:20;;;;;;;33.35;24.75;;;17.50;99.90;;;;;;5074890;28;20500;-65
2021/07/27 05:52:47;;;;;;;33.40;25.42;;;17.50;99.90;;;;;;5086499;28;20048;-65
2021/07/27 05:55:13;;;;;;;31.50;24.55;;;17.50;99.90;;;;;;5092784;28;20034;-65
2021/07/27 05:57:38;;;;;;;40.08;27.33;;;17.60;99.90;;;;;;5074714;28;20054;-65
2021/07/27 06:00:05;;;;;;;32.55;27.17;;;17.60;99.90;;;;;;5074561;28;20024;-65
2021/07/27 06:02:30;;;;;;;34.90;26.30;;;17.70;99.90;;;;;;5092379;28;20028;-65
2021/07/27 06:04:56;;;;;;;35.40;26.98;;;17.70;99.90;;;;;;5092540;28;20028;-65
2021/07/27 06:07:21;;;;;;;33.58;25.73;;;17.70;99.90;;;;;;5092659;28;20035;-65
2021/07/27 06:09:47;;;;;;;33.80;26.17;;;17.80;99.90;;;;;;5091926;28;20099;-65
2021/07/27 06:12:12;;;;;;;34.85;26.45;;;17.80;99.90;;;;;;5092486;28;20531;-65
2021/07/27 06:14:38;;;;;;;34.22;26.63;;;17.90;99.90;;;;;;5074527;28;20017;-65
2021/07/27 06:17:04;;;;;;;31.92;24.73;;;17.90;99.90;;;;;;5092485;28;20032;-66
2021/07/27 06:19:29;;;;;;;35.40;27.15;;;18.00;99.90;;;;;;5074292;28;20020;-66
2021/07/27 06:21:55;;;;;;;33.42;26.55;;;18.10;99.90;;;;;;5092511;28;20477;-65
2021/07/27 06:24:21;;;;;;;33.50;26.40;;;18.10;99.90;;;;;;5074618;28;20024;-65
2021/07/27 06:26:47;;;;;;;34.75;25.40;;;18.10;99.90;;;;;;5092328;28;20020;-65
2021/07/27 06:29:27;;;;;;;35.13;26.40;;;18.20;99.90;;;;;;5076669;28;20020;-65
2021/07/27 06:31:53;;;;;;;27.02;22.13;;;18.20;99.90;;;;;;5091733;28;20017;-65
2021/07/27 06:34:18;;;;;;;34.72;26.90;;;18.20;99.90;;;;;;5072324;28;20376;-65
2021/07/27 06:36:44;;;;;;;28.13;23.38;;;18.20;99.90;;;;;;5073914;28;20024;-65
2021/07/27 06:39:09;;;;;;;28.77;23.15;;;18.20;99.90;;;;;;5091919;28;20032;-65
2021/07/27 06:41:35;;;;;;;27.90;23.77;;;18.30;99.90;;;;;;5092454;28;20036;-65
2021/07/27 06:44:00;;;;;;;28.75;24.88;;;18.40;99.90;;;;;;5078974;28;20060;-65
2021/07/27 06:46:28;;;;;;;32.05;25.67;;;18.40;99.90;;;;;;5092117;28;20040;-64
2021/07/27 06:48:54;;;;;;;30.63;24.52;;;18.40;99.90;;;;;;5071283;28;20533;-65
2021/07/27 06:51:20;;;;;;;32.83;26.00;;;18.50;99.90;;;;;;5087912;28;20103;-65
2021/07/27 06:53:46;;;;;;;32.08;25.58;;;18.50;99.90;;;;;;5093754;28;20123;-65
2021/07/27 06:56:12;;;;;;;30.33;23.20;;;18.60;99.90;;;;;;5095876;28;20099;-65
2021/07/27 06:58:38;;;;;;;28.80;23.70;;;18.70;99.90;;;;;;5095644;28;20115;-65
2021/07/27 07:01:06;;;;;;;31.08;26.83;;;18.80;99.90;;;;;;5095948;28;20027;-65
2021/07/27 07:03:32;;;;;;;34.55;25.15;;;18.80;99.90;;;;;;5095419;28;20032;-65
2021/07/27 07:05:57;;;;;;;28.05;22.75;;;18.80;99.90;;;;;;5077543;28;20056;-65
2021/07/27 07:08:23;;;;;;;32.45;24.30;;;18.80;99.90;;;;;;5077732;28;20066;-65
2021/07/27 07:11:00;;;;;;;30.33;23.55;;;18.80;99.90;;;;;;5095489;28;20020;-65
2021/07/27 07:13:54;;;;;;;;;;;;;;;;;;;;;
2021/07/27 07:16:20;;;;;;;28.63;23.00;;;18.80;99.90;;;;;;5075597;28;20031;-65
2021/07/27 07:18:45;;;;;;;27.45;21.77;;;18.90;99.90;;;;;;5095618;28;20451;-65
2021/07/27 07:21:11;;;;;;;28.02;20.98;;;18.90;99.90;;;;;;5095313;28;20065;-65
2021/07/27 07:23:36;;;;;;;29.27;24.23;;;19.10;99.90;;;;;;5091426;28;20028;-65
2021/07/27 07:26:06;;;;;;;26.23;22.52;;;19.10;99.90;;;;;;5076606;28;20036;-65
2021/07/27 07:28:32;;;;;;;28.48;23.38;;;19.10;99.90;;;;;;5077289;28;20085;-65
2021/07/27 07:30:57;;;;;;;26.40;22.08;;;19.20;99.90;;;;;;5095289;28;20381;-65
2021/07/27 07:33:23;;;;;;;26.17;22.83;;;19.20;99.90;;;;;;5095226;28;20473;-64
2021/07/27 07:35:48;;;;;;;30.00;23.45;;;19.30;99.90;;;;;;5095025;28;20107;-65
2021/07/27 07:38:14;;;;;;;29.83;23.23;;;19.30;99.40;;;;;;5091164;28;20489;-65
2021/07/27 07:41:00;;;;;;;31.67;23.42;;;19.20;99.50;;;;;;5095129;28;20073;-66
2021/07/27 07:43:57;;;;;;;28.70;21.08;;;19.20;99.40;;;;;;5094058;28;20048;-65
2021/07/27 07:46:23;;;;;;;27.95;22.33;;;19.20;99.30;;;;;;5094844;28;20063;-65
2021/07/27 07:48:48;;;;;;;28.35;21.95;;;19.20;99.50;;;;;;5094780;28;20485;-65
2021/07/27 07:51:14;;;;;;;27.42;21.90;;;19.20;99.50;;;;;;5076723;28;20019;-65
2021/07/27 07:53:39;;;;;;;28.83;22.48;;;19.20;99.50;;;;;;5086473;28;20538;-64
2021/07/27 07:56:11;;;;;;;29.67;22.65;;;19.20;99.50;;;;;;5093423;28;20032;-65
2021/07/27 07:58:36;;;;;;;26.60;21.33;;;19.30;99.40;;;;;;5094918;28;20028;-66
2021/07/27 08:01:07;;;;;;;30.60;23.95;;;19.30;99.40;;;;;;5094673;28;20149;-65
2021/07/27 08:03:32;;;;;;;27.33;20.23;;;19.40;99.40;;;;;;5094617;28;20512;-65
2021/07/27 08:05:58;;;;;;;31.60;23.90;;;19.40;99.40;;;;;;5094327;28;20024;-65
2021/07/27 08:08:23;;;;;;;27.50;21.23;;;19.50;99.30;;;;;;5076532;28;20024;-65
2021/07/27 08:10:49;;;;;;;27.27;20.50;;;19.50;99.20;;;;;;5076375;28;20451;-65
2021/07/27 08:16:23;;;;;;;23.50;18.50;;;19.70;99.00;;;;;;5056004;28;20025;-64
2021/07/27 08:18:49;;;;;;;21.52;16.98;;;19.80;99.00;;;;;;5064890;28;20024;-65
2021/07/27 08:21:15;;;;;;;24.45;21.00;;;19.90;98.80;;;;;;5062634;28;20038;-65
2021/07/27 08:23:45;;;;;;;22.48;18.55;;;20.00;98.50;;;;;;5076846;28;20540;-65
2021/07/27 08:26:11;;;;;;;20.05;16.48;;;20.10;98.40;;;;;;5079341;28;20099;-65
2021/07/27 08:28:37;;;;;;;22.70;17.70;;;20.30;98.30;;;;;;5083457;28;20019;-65
2021/07/27 08:31:03;;;;;;;20.42;17.88;;;20.40;98.00;;;;;;5087402;28;20028;-66
2021/07/27 08:33:29;;;;;;;27.08;23.17;;;20.60;97.70;;;;;;5080068;28;20021;-65
2021/07/27 08:35:54;;;;;;;23.52;19.48;;;20.70;96.80;;;;;;5080324;28;20028;-65
2021/07/27 08:38:26;;;;;;;18.85;16.65;;;20.80;97.00;;;;;;5057848;28;20012;-64
2021/07/27 08:41:23;;;;;;;20.95;18.25;;;20.90;96.50;;;;;;5089683;28;20024;-65
2021/07/27 08:43:48;;;;;;;18.50;16.67;;;20.80;95.90;;;;;;5079031;28;20027;-65
2021/07/27 08:46:16;;;;;;;20.23;15.93;;;20.80;96.00;;;;;;5067042;28;20050;-65
2021/07/27 08:48:42;;;;;;;19.27;17.15;;;20.80;95.90;;;;;;5082811;28;20546;-65
2021/07/27 08:51:08;;;;;;;20.52;18.33;;;20.90;95.40;;;;;;5081154;28;20024;-65
2021/07/27 08:53:33;;;;;;;20.55;17.35;;;21.00;94.80;;;;;;5088776;28;20046;-65
2021/07/27 08:55:59;;;;;;;18.90;16.27;;;21.00;94.80;;;;;;5065526;28;20063;-65
2021/07/27 08:58:25;;;;;;;16.92;15.20;;;21.10;94.10;;;;;;5076436;28;20027;-65
2021/07/27 09:00:50;;;;;;;18.20;15.27;;;21.30;93.80;;;;;;5082186;28;20012;-64
2021/07/27 09:03:49;;;;;;;16.10;13.85;;;21.40;93.20;;;;;;5082953;28;20103;-64
2021/07/27 09:06:14;;;;;;;14.33;12.80;;;21.50;92.70;;;;;;5091158;28;20024;-65
2021/07/27 09:08:40;;;;;;;14.95;13.40;;;21.60;92.60;;;;;;5081415;28;20020;-65
2021/07/27 09:11:09;;;;;;;18.52;14.13;;;21.70;92.10;;;;;;5076282;28;20538;-65
2021/07/27 09:13:35;;;;;;;;;;;21.70;91.80;;;;;;5073361;28;20023;-65
2021/07/27 09:16:00;;;;;;;15.13;12.57;;;21.60;92.00;;;;;;5078639;28;19908;-65
2021/07/27 09:18:29;;;;;;;15.50;13.10;;;21.70;92.10;;;;;;5072810;28;20032;-65
2021/07/27 09:21:09;;;;;;;14.38;12.88;;;21.80;91.90;;;;;;5066026;28;20024;-65
2021/07/27 09:23:34;;;;;;;15.07;12.35;;;21.90;91.30;;;;;;5078812;28;20016;-65
2021/07/27 09:26:01;;;;;;;10.98;9.88;;;22.00;90.90;;;;;;5084288;28;20504;-65
2021/07/27 09:28:27;;;;;;;13.00;11.60;;;22.10;91.20;;;;;;5078827;28;20032;-65
2021/07/27 09:31:01;;;;;;;12.60;11.25;;;22.30;90.40;;;;;;5085884;28;20044;-65
2021/07/27 09:33:31;;;;;;;12.57;11.27;;;22.40;90.40;;;;;;5090551;28;20020;-64
2021/07/27 09:35:57;;;;;;;12.25;10.55;;;22.50;90.00;;;;;;5081595;28;20055;-65
2021/07/27 09:38:24;;;;;;;12.38;10.27;;;22.50;89.90;;;;;;5074333;28;20039;-65
2021/07/27 09:40:56;;;;;;;11.93;10.70;;;22.60;89.50;;;;;;5082900;28;20026;-65
2021/07/27 09:43:24;;;;;;;11.93;10.73;;;22.80;89.30;;;;;;5087064;28;20489;-65
2021/07/27 09:46:00;;;;;;;12.77;10.68;;;23.00;88.90;;;;;;5081727;28;20048;-65
2021/07/27 09:48:26;;;;;;;11.32;10.05;;;23.20;87.70;;;;;;5071854;28;20023;-65
2021/07/27 09:50:53;;;;;;;12.27;10.88;;;23.20;86.90;;;;;;5077559;28;20016;-66
2021/07/27 09:53:19;;;;;;;13.50;11.70;;;23.30;86.20;;;;;;5057871;28;20025;-65
2021/07/27 09:55:45;;;;;;;13.07;10.85;;;23.10;85.20;;;;;;5054725;28;20541;-65
2021/07/27 09:58:11;;;;;;;11.80;10.60;;;23.00;85.60;;;;;;5052199;28;20120;-65
2021/07/27 10:00:51;;;;;;;15.15;11.23;;;23.00;85.90;;;;;;5052163;28;20056;-65
2021/07/27 10:03:19;;;;;;;;;;;22.90;86.10;;;;;;5065176;28;20020;-65
2021/07/27 10:06:10;;;;;;;13.63;10.57;;;22.70;86.60;;;;;;5083739;28;19955;-65
2021/07/27 10:08:41;;;;;;;12.23;10.73;;;22.70;87.10;;;;;;5058137;28;20028;-66
2021/07/27 10:11:11;;;;;;;12.07;10.80;;;22.90;87.00;;;;;;5076749;28;20023;-65
2021/07/27 10:13:40;;;;;;;12.20;10.93;;;23.00;86.30;;;;;;5072449;28;20045;-65
2021/07/27 10:16:06;;;;;;;10.67;9.63;;;23.10;86.40;;;;;;5052786;28;20037;-66
2021/07/27 10:18:34;;;;;;;11.27;10.07;;;23.30;86.30;;;;;;5066138;28;20021;-65
2021/07/27 10:21:16;;;;;;;12.23;10.45;;;23.30;86.30;;;;;;5071947;28;20140;-65
2021/07/27 10:23:43;;;;;;;10.25;9.15;;;23.30;85.60;;;;;;5064234;28;20019;-66
2021/07/27 10:26:08;;;;;;;10.80;9.68;;;23.10;85.80;;;;;;5064424;28;20024;-66
2021/07/27 10:28:34;;;;;;;11.13;9.63;;;23.10;85.50;;;;;;5046165;28;20021;-67
2021/07/27 10:31:33;;;;;;;11.40;9.30;;;23.00;85.00;;;;;;5043548;28;20036;-66
2021/07/27 10:33:59;;;;;;;;;;;22.90;84.90;;;;;;5092815;28;20020;-66
2021/07/27 10:36:27;;;;;;;13.15;10.90;;;22.90;85.20;;;;;;5084965;28;19905;-66
2021/07/27 10:38:53;;;;;;;12.00;10.80;;;22.90;85.30;;;;;;5062638;28;20052;-66
2021/07/27 10:41:19;;;;;;;10.77;9.75;;;22.90;85.90;;;;;;5071834;28;20086;-66
2021/07/27 10:43:46;;;;;;;12.32;10.80;;;22.90;85.30;;;;;;5062288;28;20458;-66
2021/07/27 10:46:11;;;;;;;13.25;11.85;;;22.90;85.20;;;;;;5066244;28;20063;-66
2021/07/27 10:48:39;;;;;;;13.00;11.07;;;23.00;85.40;;;;;;5055252;28;20474;-66
2021/07/27 10:51:31;;;;;;;11.15;10.05;;;23.10;85.10;;;;;;5056946;28;20017;-66
2021/07/27 10:53:57;;;;;;;11.85;10.60;;;23.10;84.80;;;;;;5058901;28;20033;-66
2021/07/27 10:56:27;;;;;;;12.38;10.10;;;23.00;84.40;;;;;;5063326;28;20454;-66
2021/07/27 11:02:13;;;;;;;12.63;10.35;;;23.00;84.20;;;;;;5053804;28;20371;-66
2021/07/27 11:04:39;;;;;;;11.63;10.32;;;22.90;84.70;;;;;;5066893;28;20654;-66
2021/07/27 11:07:18;;;;;;;12.25;10.50;;;22.80;84.90;;;;;;5066017;28;20048;-66
2021/07/27 11:09:54;;;;;;;11.73;10.50;;;22.80;84.80;;;;;;5065467;28;20499;-66
2021/07/27 11:12:34;;;;;;;10.73;9.57;;;22.80;85.30;;;;;;5066018;28;20036;-66
2021/07/27 11:15:09;;;;;;;12.13;10.70;;;22.80;85.60;;;;;;5066959;28;20024;-66
2021/07/27 11:17:35;;;;;;;5.93;3.97;;;22.80;85.80;;;;;;5064286;28;20013;-66
2021/07/27 11:20:02;;;;;;;2.83;2.63;;;22.70;84.80;;;;;;5072235;28;20035;-66
2021/07/27 11:22:28;;;;;;;3.45;2.85;;;22.40;85.70;;;;;;5095189;28;20028;-67
2021/07/27 11:24:57;;;;;;;3.42;2.53;;;22.10;87.60;;;;;;5079143;28;20021;-67
2021/07/27 11:27:30;;;;;;;4.53;2.50;;;21.80;89.00;;;;;;5072667;28;20107;-67
2021/07/27 11:30:09;;;;;;;5.85;2.80;;;21.60;90.00;;;;;;5044873;28;20402;-67
2021/07/27 11:35:42;;;;;;;3.58;2.58;;;21.30;91.30;;;;;;5046043;28;20071;-65
2021/07/27 11:38:46;;;;;;;4.28;2.80;;;21.20;91.60;;;;;;5071054;28;20039;-66
2021/07/27 11:41:12;;;;;;;4.13;2.65;;;21.30;91.70;;;;;;5074638;28;20123;-66
2021/07/27 11:43:39;;;;;;;3.17;2.88;;;21.10;91.80;;;;;;5065237;28;20439;-66
2021/07/27 11:46:52;;;;;;;3.22;2.70;;;21.20;92.00;;;;;;5069244;28;20045;-66
2021/07/27 11:49:17;;;;;;;2.85;2.55;;;21.20;92.00;;;;;;5068467;28;20028;-66
2021/07/27 11:51:43;;;;;;;3.25;2.50;;;21.10;92.20;;;;;;5069646;28;20029;-66
2021/07/27 11:54:12;;;;;;;3.90;2.40;;;21.30;92.20;;;;;;5069547;28;20032;-66
2021/07/27 11:56:47;;;;;;;3.73;2.50;;;21.50;91.90;;;;;;5068144;28;20032;-66
2021/07/27 11:59:22;;;;;;;4.30;2.60;;;21.70;92.00;;;;;;5053905;28;20108;-66
2021/07/27 12:01:47;;;;;;;2.85;2.33;;;21.70;91.70;;;;;;5053669;28;20107;-66
2021/07/27 12:04:13;;;;;;;2.85;2.33;;;21.70;91.40;;;;;;5052446;28;20128;-65
2021/07/27 12:06:50;;;;;;;4.35;2.33;;;21.70;91.30;;;;;;5038815;28;20083;-66
2021/07/27 12:09:15;;;;;;;3.08;2.55;;;21.70;91.00;;;;;;5053973;28;20020;-66
2021/07/27 12:11:41;;;;;;;2.08;1.88;;;21.80;90.80;;;;;;5071501;28;20020;-66
2021/07/27 12:14:07;;;;;;;4.07;2.05;;;22.00;90.70;;;;;;5058180;28;20067;-66
2021/07/27 12:16:33;;;;;;;2.13;1.90;;;22.30;90.50;;;;;;5046267;28;20064;-65
2021/07/27 12:18:58;;;;;;;2.72;1.80;;;22.60;90.00;;;;;;5055933;28;20068;-66
2021/07/27 12:21:24;;;;;;;3.83;2.45;;;22.80;89.50;;;;;;5053758;28;20052;-66
2021/07/27 12:23:49;;;;;;;2.47;2.28;;;23.10;89.10;;;;;;5053999;28;20043;-66
2021/07/27 12:26:15;;;;;;;2.75;2.30;;;23.40;88.50;;;;;;5054041;28;20021;-66
2021/07/27 12:28:40;;;;;;;3.38;2.40;;;23.70;87.70;;;;;;5053755;28;20483;-66
2021/07/27 12:31:06;;;;;;;2.80;2.13;;;23.80;87.00;;;;;;5054308;28;20025;-66
2021/07/27 12:33:31;;;;;;;2.53;1.90;;;24.10;87.00;;;;;;5066406;28;20390;-66
2021/07/27 12:36:04;;;;;;;2.90;2.47;;;24.40;86.30;;;;;;5073501;28;20031;-66
2021/07/27 12:38:30;;;;;;;3.78;2.95;;;24.70;85.00;;;;;;5073294;28;20123;-66
2021/07/27 12:41:03;;;;;;;2.58;2.10;;;24.70;84.20;;;;;;5073127;28;20032;-67
2021/07/27 12:43:28;;;;;;;2.85;2.40;;;25.00;84.30;;;;;;5072543;28;20071;-67
2021/07/27 12:45:56;;;;;;;4.43;3.60;;;25.20;83.30;;;;;;5079573;28;20071;-66
2021/07/27 12:48:22;;;;;;;4.63;3.05;;;25.40;81.80;;;;;;5065599;28;20024;-66
2021/07/27 12:50:47;;;;;;;5.35;3.60;;;25.60;81.40;;;;;;5080186;28;20027;-66
2021/07/27 12:53:13;;;;;;;3.72;3.00;;;25.80;81.30;;;;;;5082973;28;20020;-67
2021/07/27 12:55:38;;;;;;;5.40;3.75;;;26.10;80.70;;;;;;5091103;28;20024;-66
2021/07/27 12:58:04;;;;;;;4.47;4.07;;;26.30;80.30;;;;;;5077802;28;20103;-66
2021/07/27 13:00:30;;;;;;;4.90;4.13;;;26.50;79.60;;;;;;5060302;28;20027;-66
2021/07/27 13:02:56;;;;;;;4.25;3.85;;;26.60;78.80;;;;;;5064331;28;20020;-67
2021/07/27 13:05:21;;;;;;;6.45;5.85;;;26.50;77.40;;;;;;5089014;28;20474;-66
2021/07/27 13:07:47;;;;;;;7.70;6.03;;;26.40;76.80;;;;;;5073300;28;20123;-66